Time;durP1;ratioP1;P1;durP2;ratioP2;P2;SDS_P1;SDS_P2;PMS_P1;PMS_P2;Temp;Humidity;BMP_temperature;BMP_pressure;BME280_temperature;BME280_humidity;BME280_pressure;Samples;Min_cycle;Max_cycle;Signal;HPM_P1;HPM_P2
2024/03/10 00:00:41;;;;;;;10.93;10.23;;;12.00;15.10;;;;;;4977345;28;20206;-80
2024/03/10 00:03:07;;;;;;;11.30;10.50;;;12.10;15.90;;;;;;4967777;28;20190;-79
2024/03/10 00:05:34;;;;;;;11.50;10.80;;;12.10;15.30;;;;;;4977248;28;20773;-78
2024/03/10 00:07:59;;;;;;;10.00;9.40;;;12.10;15.40;;;;;;4992476;28;20871;-81
2024/03/10 00:10:25;;;;;;;14.20;13.10;;;12.10;15.00;;;;;;4995301;28;20543;-81
2024/03/10 00:12:51;;;;;;;10.20;9.60;;;12.20;15.50;;;;;;4994238;28;20497;-78
2024/03/10 00:15:20;;;;;;;8.57;8.07;;;12.20;15.10;;;;;;4988359;28;20301;-78
2024/03/10 00:17:47;;;;;;;9.30;8.70;;;12.00;14.70;;;;;;4996407;28;20461;-79
2024/03/10 00:20:13;;;;;;;8.87;8.27;;;12.00;14.80;;;;;;4996954;28;20452;-80
2024/03/10 00:22:42;;;;;;;10.17;9.47;;;12.00;14.90;;;;;;4996372;28;20436;-80
2024/03/10 00:25:08;;;;;;;11.07;10.17;;;12.00;15.40;;;;;;4996529;28;20429;-81
2024/03/10 00:27:38;;;;;;;9.40;8.80;;;12.00;15.40;;;;;;4998422;28;21000;-80
2024/03/10 00:30:05;;;;;;;9.17;8.57;;;12.00;15.00;;;;;;4997007;28;20460;-78
2024/03/10 00:32:35;;;;;;;9.13;8.63;;;11.90;14.90;;;;;;4994437;28;20436;-78
2024/03/10 00:35:01;;;;;;;9.57;9.00;;;11.90;15.40;;;;;;4995748;28;20520;-78
2024/03/10 00:37:27;;;;;;;8.73;8.13;;;12.00;15.20;;;;;;4996556;28;20504;-78
2024/03/10 00:39:53;;;;;;;9.60;8.90;;;11.90;14.90;;;;;;4992199;28;21001;-79
2024/03/10 00:42:20;;;;;;;8.90;8.30;;;11.90;15.40;;;;;;4992221;28;20464;-79
2024/03/10 00:44:46;;;;;;;9.87;9.17;;;12.00;15.10;;;;;;4997204;28;20413;-79
2024/03/10 00:47:12;;;;;;;8.40;7.80;;;12.10;15.00;;;;;;4993946;28;20471;-80
2024/03/10 00:49:39;;;;;;;9.10;8.50;;;12.00;14.60;;;;;;4995028;28;20824;-78
2024/03/10 00:52:09;;;;;;;8.33;7.70;;;12.00;14.90;;;;;;4993502;28;20194;-79
2024/03/10 00:54:35;;;;;;;8.23;7.63;;;11.90;14.70;;;;;;4985622;28;20523;-79
2024/03/10 00:57:01;;;;;;;8.90;8.30;;;11.90;14.80;;;;;;4978676;28;20817;-78
2024/03/10 00:59:26;;;;;;;9.20;8.60;;;12.00;15.50;;;;;;4988173;28;20556;-80
2024/03/10 01:01:52;;;;;;;8.40;7.87;;;12.00;15.10;;;;;;4973402;28;20603;-79
2024/03/10 01:04:18;;;;;;;8.47;7.97;;;12.00;14.80;;;;;;4974746;28;20677;-79
2024/03/10 01:06:44;;;;;;;7.77;7.20;;;12.00;14.50;;;;;;4989234;28;20463;-80
2024/03/10 01:09:10;;;;;;;8.13;7.40;;;12.10;14.20;;;;;;4974333;28;20548;-79
2024/03/10 01:11:42;;;;;;;9.20;8.60;;;12.00;14.70;;;;;;4974129;28;20178;-79
2024/03/10 01:14:11;;;;;;;7.77;7.27;;;12.10;14.80;;;;;;4972992;28;20655;-77
2024/03/10 01:16:36;;;;;;;7.83;7.23;;;12.10;14.30;;;;;;4975121;28;20956;-78
2024/03/10 01:19:02;;;;;;;8.57;8.07;;;12.10;13.90;;;;;;4989288;28;20441;-78
2024/03/10 01:21:28;;;;;;;8.07;7.67;;;12.10;14.00;;;;;;4974781;28;20453;-79
2024/03/10 01:23:53;;;;;;;9.00;8.40;;;12.20;13.90;;;;;;4974404;28;20187;-80
2024/03/10 01:26:19;;;;;;;9.63;8.93;;;12.10;14.10;;;;;;4974482;28;20214;-80
2024/03/10 01:28:44;;;;;;;8.47;7.90;;;12.10;14.40;;;;;;4974766;28;20564;-80
2024/03/10 01:31:10;;;;;;;8.20;7.80;;;12.10;14.40;;;;;;4976720;28;20747;-80
2024/03/10 01:33:36;;;;;;;10.57;9.63;;;12.10;14.30;;;;;;4978209;28;20187;-78
2024/03/10 01:36:04;;;;;;;8.90;8.40;;;12.10;14.50;;;;;;4974967;28;20243;-80
2024/03/10 01:38:30;;;;;;;8.20;7.70;;;12.10;14.60;;;;;;4973484;28;20442;-78
2024/03/10 01:40:57;;;;;;;9.10;8.60;;;12.10;15.30;;;;;;4974679;28;20560;-79
2024/03/10 01:43:23;;;;;;;8.13;7.63;;;12.20;15.00;;;;;;4974072;28;20808;-78
2024/03/10 01:45:59;;;;;;;8.53;8.13;;;12.10;14.80;;;;;;4974217;28;20426;-78
2024/03/10 01:48:25;;;;;;;11.70;10.80;;;12.10;15.00;;;;;;4986543;28;20544;-80
2024/03/10 01:50:51;;;;;;;9.27;8.77;;;12.00;15.10;;;;;;4994793;28;20453;-80
2024/03/10 01:53:17;;;;;;;10.10;9.50;;;12.10;15.00;;;;;;4975113;28;20191;-79
2024/03/10 01:55:42;;;;;;;9.83;9.13;;;12.20;15.10;;;;;;4974355;28;20191;-78
2024/03/10 01:58:08;;;;;;;10.13;9.43;;;12.10;15.60;;;;;;4975263;28;20214;-79
2024/03/10 02:00:38;;;;;;;10.77;9.97;;;12.20;15.40;;;;;;4975427;28;20214;-80
2024/03/10 02:03:04;;;;;;;9.80;9.20;;;12.10;15.40;;;;;;4973055;28;20179;-81
2024/03/10 02:05:30;;;;;;;9.83;9.13;;;12.10;15.50;;;;;;4974041;28;20460;-80
2024/03/10 02:07:56;;;;;;;10.80;10.10;;;12.20;15.50;;;;;;4974500;28;20315;-80
2024/03/10 02:10:22;;;;;;;9.63;8.97;;;12.20;15.40;;;;;;4973966;28;20549;-80
2024/03/10 02:12:48;;;;;;;10.93;10.07;;;12.30;15.20;;;;;;4974956;28;20430;-78
2024/03/10 02:15:20;;;;;;;9.67;8.90;;;12.20;15.20;;;;;;4980010;28;20456;-77
2024/03/10 02:17:45;;;;;;;10.93;10.10;;;12.20;15.20;;;;;;4987794;28;20186;-77
2024/03/10 02:20:19;;;;;;;10.37;9.73;;;12.20;15.70;;;;;;4993197;28;20997;-77
2024/03/10 02:22:46;;;;;;;9.43;8.83;;;12.20;15.80;;;;;;4992965;28;20247;-77
2024/03/10 02:25:13;;;;;;;10.93;10.13;;;12.30;15.50;;;;;;4993109;28;20472;-79
2024/03/10 02:27:44;;;;;;;9.80;9.20;;;12.20;15.50;;;;;;4987128;28;20466;-80
2024/03/10 02:30:19;;;;;;;10.20;9.60;;;12.20;15.50;;;;;;4992240;28;20457;-78
2024/03/10 02:49:13;;;;;;;9.60;9.00;;;12.00;16.30;;;;;;4992986;28;20452;-79
2024/03/10 02:51:41;;;;;;;9.20;8.60;;;12.10;16.30;;;;;;4991646;28;20429;-78
2024/03/10 02:54:12;;;;;;;8.60;7.90;;;12.10;16.30;;;;;;4992283;28;20178;-80
2024/03/10 02:56:38;;;;;;;9.00;8.50;;;12.10;16.20;;;;;;4993718;28;20451;-78
2024/03/10 02:59:03;;;;;;;9.70;9.00;;;12.00;16.00;;;;;;4985298;28;20516;-79
2024/03/10 03:01:30;;;;;;;8.80;8.20;;;11.80;16.20;;;;;;4992527;28;20623;-78
2024/03/10 03:03:55;;;;;;;8.97;8.37;;;11.70;16.20;;;;;;4991891;28;20452;-79
2024/03/10 03:06:22;;;;;;;8.60;8.10;;;11.60;17.10;;;;;;4993454;28;20469;-80
2024/03/10 03:08:47;;;;;;;9.50;8.90;;;11.80;16.20;;;;;;4993447;28;20179;-78
2024/03/10 03:11:13;;;;;;;9.47;8.87;;;11.80;15.40;;;;;;4992837;28;20459;-80
2024/03/10 03:13:39;;;;;;;9.27;8.70;;;11.80;14.90;;;;;;4991646;28;20186;-79
2024/03/10 03:16:04;;;;;;;8.93;8.43;;;11.90;14.70;;;;;;4991805;28;20189;-79
2024/03/10 03:18:31;;;;;;;9.13;8.63;;;12.00;14.60;;;;;;4992121;28;20232;-78
2024/03/10 03:20:57;;;;;;;9.03;8.50;;;12.00;15.10;;;;;;4992924;28;20202;-80
2024/03/10 03:23:23;;;;;;;10.40;9.60;;;12.00;14.50;;;;;;4993053;28;20456;-78
2024/03/10 03:25:49;;;;;;;10.10;9.50;;;12.00;14.40;;;;;;4993471;28;20452;-79
2024/03/10 03:28:15;;;;;;;10.37;9.77;;;12.00;14.30;;;;;;4991952;28;20216;-79
2024/03/10 03:30:45;;;;;;;10.03;9.40;;;12.00;14.40;;;;;;4992145;28;20461;-79
2024/03/10 03:33:12;;;;;;;8.90;8.30;;;12.00;14.40;;;;;;4991198;28;20908;-78
2024/03/10 03:35:38;;;;;;;9.73;9.13;;;12.00;14.30;;;;;;4993048;28;20476;-79
2024/03/10 03:38:04;;;;;;;9.43;8.80;;;11.90;14.20;;;;;;4993113;28;20491;-79
2024/03/10 03:40:30;;;;;;;9.30;8.60;;;11.90;14.20;;;;;;4992927;28;20461;-78
2024/03/10 03:42:56;;;;;;;9.17;8.60;;;11.80;15.10;;;;;;4978742;28;20531;-80
2024/03/10 03:45:24;;;;;;;10.00;9.40;;;11.60;15.60;;;;;;4980783;28;20274;-79
2024/03/10 03:47:50;;;;;;;10.20;9.50;;;11.60;15.50;;;;;;4968961;28;20206;-79
2024/03/10 03:50:15;;;;;;;8.80;8.30;;;11.70;15.10;;;;;;4973256;28;20453;-79
2024/03/10 03:52:42;;;;;;;8.73;8.23;;;11.70;15.60;;;;;;4974306;28;20185;-78
2024/03/10 03:55:14;;;;;;;9.47;8.77;;;11.50;15.90;;;;;;4974054;28;20210;-79
2024/03/10 03:57:40;;;;;;;7.90;7.50;;;11.50;15.90;;;;;;4970762;28;20445;-80
2024/03/10 04:00:11;;;;;;;9.37;8.77;;;11.40;15.80;;;;;;4998688;28;21180;-79
2024/03/10 04:02:40;;;;;;;8.60;8.10;;;11.20;16.30;;;;;;4995243;28;20190;-78
2024/03/10 04:05:07;;;;;;;8.67;8.27;;;11.10;16.90;;;;;;4993132;28;20441;-77
2024/03/10 04:07:32;;;;;;;8.40;7.90;;;11.00;17.20;;;;;;4995497;28;20467;-78
2024/03/10 04:09:58;;;;;;;8.27;7.77;;;10.80;17.40;;;;;;4993728;28;20835;-79
2024/03/10 04:12:23;;;;;;;7.87;7.10;;;10.80;17.90;;;;;;4993842;28;20182;-77
2024/03/10 04:14:49;;;;;;;8.60;7.90;;;11.00;17.40;;;;;;4993797;28;20181;-78
2024/03/10 04:17:14;;;;;;;8.77;8.17;;;11.10;16.50;;;;;;4994961;28;20715;-79
2024/03/10 04:19:40;;;;;;;8.10;7.60;;;11.30;15.80;;;;;;4993134;28;20575;-76
2024/03/10 04:22:09;;;;;;;8.50;8.00;;;11.50;15.90;;;;;;4993165;28;20190;-77
2024/03/10 04:24:43;;;;;;;7.43;7.00;;;11.60;15.10;;;;;;4995325;28;20182;-78
2024/03/10 04:27:08;;;;;;;7.17;6.77;;;11.80;14.70;;;;;;4992954;28;20560;-76
2024/03/10 04:29:35;;;;;;;8.67;8.07;;;11.90;14.20;;;;;;4994063;28;20815;-77
2024/03/10 04:32:00;;;;;;;8.40;7.80;;;11.90;14.90;;;;;;4993089;28;20186;-79
2024/03/10 04:34:26;;;;;;;7.93;7.53;;;12.00;13.90;;;;;;4992847;28;20432;-78
2024/03/10 04:36:52;;;;;;;8.00;7.50;;;12.00;13.50;;;;;;4993634;28;20186;-79
2024/03/10 04:39:18;;;;;;;8.37;7.93;;;12.10;13.50;;;;;;4993235;28;20218;-79
2024/03/10 04:41:45;;;;;;;7.90;7.40;;;12.00;14.50;;;;;;4994401;28;20186;-77
2024/03/10 04:44:11;;;;;;;8.30;7.70;;;11.70;14.90;;;;;;4992927;28;20536;-78
2024/03/10 04:46:39;;;;;;;7.50;7.10;;;11.50;15.30;;;;;;4993797;28;20563;-77
2024/03/10 04:53:05;;;;;;;7.73;7.33;;;11.30;15.80;;;;;;5003273;28;20463;-85
2024/03/10 05:02:53;;;;;;;7.40;6.90;;;11.40;15.80;;;;;;5033936;23;21096;-79
2024/03/10 05:06:09;;;;;;;7.43;6.93;;;11.50;14.40;;;;;;5019854;28;20444;-79
2024/03/10 05:09:05;;;;;;;7.30;6.90;;;11.50;15.30;;;;;;5019677;28;20440;-80
2024/03/10 05:12:24;;;;;;;7.20;6.70;;;11.20;15.70;;;;;;5018080;28;20460;-80
2024/03/10 05:19:19;;;;;;;7.00;6.60;;;10.90;15.50;;;;;;5001736;28;20467;-81
2024/03/10 05:22:51;;;;;;;6.47;6.13;;;11.00;15.60;;;;;;4988390;28;20492;-81
2024/03/10 05:25:17;;;;;;;7.00;6.60;;;11.20;14.90;;;;;;5011846;28;20443;-80
2024/03/10 05:27:51;;;;;;;6.93;6.53;;;11.40;14.60;;;;;;5021091;28;20550;-80
2024/03/10 05:30:18;;;;;;;6.63;6.30;;;11.50;14.70;;;;;;5019827;28;20216;-81
2024/03/10 05:32:50;;;;;;;7.07;6.67;;;11.50;13.70;;;;;;5023102;28;20497;-81
2024/03/10 05:35:15;;;;;;;7.07;6.57;;;11.70;13.60;;;;;;5022777;28;20257;-81
2024/03/10 05:37:50;;;;;;;6.77;6.47;;;11.70;13.20;;;;;;5024913;28;20781;-80
2024/03/10 05:40:17;;;;;;;7.00;6.43;;;11.80;13.20;;;;;;5024492;28;20192;-79
2024/03/10 05:42:58;;;;;;;7.20;6.80;;;11.80;13.10;;;;;;5019759;28;20498;-80
2024/03/10 05:45:35;;;;;;;6.27;5.97;;;11.80;12.90;;;;;;5011534;28;20500;-81
2024/03/10 05:48:00;;;;;;;6.37;6.07;;;11.80;13.20;;;;;;5019981;28;20486;-81
2024/03/10 05:50:32;;;;;;;7.07;6.67;;;11.80;13.90;;;;;;5022233;28;20436;-82
2024/03/10 05:53:12;;;;;;;7.20;6.87;;;11.80;13.50;;;;;;5021296;28;20188;-83
2024/03/10 05:55:38;;;;;;;6.50;6.20;;;11.80;13.60;;;;;;5014110;28;20420;-78
2024/03/10 05:58:05;;;;;;;7.90;7.30;;;11.80;13.70;;;;;;5019893;28;20935;-80
2024/03/10 06:00:38;;;;;;;7.03;6.73;;;11.60;14.00;;;;;;5012117;28;20254;-81
2024/03/10 06:03:04;;;;;;;7.70;7.20;;;11.50;14.50;;;;;;4998987;28;20810;-80
2024/03/10 06:05:30;;;;;;;7.20;6.80;;;11.50;14.60;;;;;;5006991;28;20443;-80
2024/03/10 06:07:56;;;;;;;6.40;6.10;;;11.60;14.10;;;;;;4998454;28;20216;-82
2024/03/10 06:10:26;;;;;;;6.50;6.13;;;11.60;13.50;;;;;;4998096;28;20468;-81
2024/03/10 06:13:42;;;;;;;6.40;6.00;;;11.60;13.20;;;;;;4980810;28;20440;-82
2024/03/10 06:16:08;;;;;;;7.80;7.30;;;11.60;12.90;;;;;;5013381;28;20452;-80
2024/03/10 06:27:10;;;;;;;7.90;7.30;;;11.50;13.60;;;;;;5015599;28;20893;-78
2024/03/10 06:29:40;;;;;;;7.33;6.90;;;11.30;14.50;;;;;;5023230;28;20424;-80
2024/03/10 06:32:07;;;;;;;7.33;7.00;;;11.40;14.80;;;;;;5032505;28;20508;-80
2024/03/10 06:34:33;;;;;;;7.00;6.60;;;11.50;14.50;;;;;;5033505;28;20470;-80
2024/03/10 06:36:59;;;;;;;6.20;5.90;;;11.40;14.10;;;;;;5036811;28;20454;-80
2024/03/10 06:39:31;;;;;;;7.50;7.10;;;11.20;14.40;;;;;;5035941;28;20181;-80
2024/03/10 06:42:07;;;;;;;6.77;6.37;;;11.20;14.90;;;;;;5009275;28;20467;-79
2024/03/10 06:44:34;;;;;;;7.63;7.20;;;11.10;15.10;;;;;;5023975;28;20822;-78
2024/03/10 06:47:04;;;;;;;7.43;6.93;;;10.90;15.50;;;;;;5016181;28;20472;-79
2024/03/10 06:49:36;;;;;;;7.60;7.20;;;10.90;15.50;;;;;;5013536;28;20524;-79
2024/03/10 06:52:02;;;;;;;7.43;6.93;;;11.00;15.60;;;;;;5004118;28;20463;-79
2024/03/10 06:54:34;;;;;;;7.97;7.47;;;11.00;15.60;;;;;;5011570;28;20420;-79
2024/03/10 06:59:48;;;;;;;7.40;7.00;;;10.60;16.80;;;;;;5007713;28;20451;-81
2024/03/10 07:02:37;;;;;;;8.13;7.63;;;10.50;17.10;;;;;;4999218;28;20484;-79
2024/03/10 07:05:20;;;;;;;7.77;7.37;;;10.30;17.40;;;;;;5002470;28;20440;-80
2024/03/10 07:07:46;;;;;;;7.60;7.03;;;10.30;17.20;;;;;;5007419;28;21011;-79
2024/03/10 07:10:13;;;;;;;8.00;7.60;;;10.40;17.00;;;;;;5009591;28;20424;-80
2024/03/10 07:12:42;;;;;;;7.43;7.03;;;10.50;16.70;;;;;;5007532;28;20233;-78
2024/03/10 07:15:09;;;;;;;7.73;7.33;;;10.60;16.60;;;;;;5005776;28;20482;-79
2024/03/10 07:17:38;;;;;;;6.73;6.33;;;10.80;15.80;;;;;;5007519;28;20421;-78
2024/03/10 07:20:10;;;;;;;7.37;6.97;;;11.00;15.60;;;;;;5014459;28;20511;-81
2024/03/10 07:22:41;;;;;;;6.63;6.33;;;11.10;15.20;;;;;;5011553;28;20492;-80
2024/03/10 07:25:10;;;;;;;6.77;6.37;;;11.30;15.00;;;;;;5010098;28;20421;-79
2024/03/10 07:27:41;;;;;;;7.40;7.00;;;11.30;14.70;;;;;;5008079;28;20495;-80
2024/03/10 07:30:15;;;;;;;6.97;6.60;;;11.40;14.20;;;;;;5015040;28;20811;-80
2024/03/10 07:32:42;;;;;;;6.80;6.50;;;11.50;14.10;;;;;;5010626;28;20526;-80
2024/03/10 07:35:09;;;;;;;6.43;6.07;;;11.60;14.00;;;;;;5012006;28;20429;-80
2024/03/10 07:37:35;;;;;;;7.37;6.93;;;11.60;13.30;;;;;;4993959;28;20429;-81
2024/03/10 07:40:15;;;;;;;6.57;6.10;;;11.60;13.30;;;;;;5005804;28;20498;-81
2024/03/10 07:42:46;;;;;;;6.00;5.80;;;11.70;12.90;;;;;;5016453;28;20502;-81
2024/03/10 07:45:12;;;;;;;7.40;7.00;;;11.70;12.60;;;;;;5023719;28;20442;-81
2024/03/10 07:47:45;;;;;;;6.60;6.30;;;11.80;12.40;;;;;;5017242;28;20528;-81
2024/03/10 07:50:12;;;;;;;7.13;6.73;;;11.80;12.70;;;;;;5014290;28;20177;-81
2024/03/10 07:52:45;;;;;;;6.50;6.20;;;11.70;12.30;;;;;;5011701;28;20453;-81
2024/03/10 07:55:11;;;;;;;5.90;5.60;;;11.30;13.30;;;;;;5000304;28;20794;-81
2024/03/10 07:57:39;;;;;;;7.00;6.60;;;11.10;13.80;;;;;;5015594;28;20427;-81
2024/03/10 08:00:20;;;;;;;6.87;6.47;;;11.10;14.40;;;;;;5003629;28;20455;-81
2024/03/10 08:02:45;;;;;;;6.73;6.43;;;11.10;13.60;;;;;;5009705;28;20517;-78
2024/03/10 08:05:11;;;;;;;7.13;6.73;;;11.00;14.30;;;;;;5009414;28;20471;-80
2024/03/10 08:07:40;;;;;;;6.73;6.40;;;11.10;14.10;;;;;;5015144;28;20212;-81
2024/03/10 08:10:25;;;;;;;6.93;6.53;;;11.20;14.60;;;;;;5014958;28;20439;-84
2024/03/10 08:12:52;;;;;;;6.20;5.80;;;11.30;13.80;;;;;;5002927;28;20463;-79
2024/03/10 08:15:17;;;;;;;7.07;6.57;;;11.40;13.70;;;;;;5014340;28;20432;-81
2024/03/10 08:17:52;;;;;;;6.37;5.87;;;11.40;13.10;;;;;;5008939;28;20436;-81
2024/03/10 08:20:18;;;;;;;6.53;6.13;;;11.50;13.10;;;;;;5008358;28;20185;-80
2024/03/10 08:22:45;;;;;;;6.37;5.97;;;11.50;12.50;;;;;;5008096;28;20527;-81
2024/03/10 08:25:11;;;;;;;6.60;6.30;;;11.60;12.70;;;;;;5002100;28;20194;-80
2024/03/10 08:27:36;;;;;;;6.30;6.00;;;11.50;12.40;;;;;;5014572;28;20482;-80
2024/03/10 08:31:00;;;;;;;7.00;6.60;;;11.60;12.50;;;;;;5007461;28;20526;-81
2024/03/10 08:36:52;;;;;;;7.37;6.97;;;11.80;11.60;;;;;;4999140;28;20439;-80
2024/03/10 08:39:19;;;;;;;7.53;7.03;;;11.90;11.60;;;;;;5015868;28;20437;-81
2024/03/10 08:42:10;;;;;;;6.60;6.20;;;12.00;11.00;;;;;;5014722;28;20205;-82
2024/03/10 08:45:28;;;;;;;6.37;6.07;;;11.90;11.00;;;;;;5011350;28;20471;-82
2024/03/10 08:48:27;;;;;;;6.00;5.70;;;11.90;10.80;;;;;;5024978;28;21093;-81
2024/03/10 08:54:56;;;;;;;5.80;5.30;;;11.90;11.30;;;;;;5006333;28;20435;-82
2024/03/10 09:04:54;;;;;;;7.23;6.80;;;12.20;11.40;;;;;;4957075;29;20474;-81
2024/03/10 09:14:32;;;;;;;7.27;6.87;;;12.30;11.20;;;;;;4937391;29;20590;-81
2024/03/10 09:17:16;;;;;;;6.87;6.40;;;12.40;11.10;;;;;;4951092;29;20451;-80
2024/03/10 09:19:59;;;;;;;7.40;6.67;;;12.40;10.70;;;;;;4958327;28;20449;-80
2024/03/10 09:22:54;;;;;;;6.53;6.23;;;12.40;10.80;;;;;;4947869;29;20450;-80
2024/03/10 09:25:36;;;;;;;6.30;6.00;;;12.50;10.70;;;;;;4975542;28;20513;-80
2024/03/10 09:28:09;;;;;;;6.37;6.07;;;12.50;10.00;;;;;;5006854;28;20555;-80
2024/03/10 09:31:18;;;;;;;6.20;5.87;;;12.60;10.80;;;;;;4991458;28;20461;-81
2024/03/10 09:34:25;;;;;;;6.00;5.37;;;12.50;10.00;;;;;;5009832;28;20528;-80
2024/03/10 09:37:16;;;;;;;5.83;5.53;;;12.60;9.70;;;;;;5011099;28;20433;-80
2024/03/10 09:44:00;;;;;;;6.43;6.03;;;12.30;10.70;;;;;;5002282;28;20531;-81
2024/03/10 09:46:30;;;;;;;6.20;5.83;;;12.50;10.70;;;;;;5007988;28;20562;-80
2024/03/10 09:48:57;;;;;;;5.90;5.40;;;12.60;10.00;;;;;;5011510;28;20493;-79
2024/03/10 09:51:30;;;;;;;5.40;5.20;;;12.70;9.60;;;;;;5010577;28;20836;-81
2024/03/10 09:54:52;;;;;;;10.43;9.53;;;12.80;9.60;;;;;;4993819;28;20448;-82
2024/03/10 09:57:18;;;;;;;7.00;6.50;;;12.90;9.30;;;;;;5010631;28;20428;-80
2024/03/10 09:59:58;;;;;;;6.20;5.90;;;13.00;9.40;;;;;;4987378;28;20424;-81
2024/03/10 10:02:53;;;;;;;5.30;5.10;;;13.00;9.30;;;;;;5010970;28;20212;-81
2024/03/10 10:05:44;;;;;;;5.40;5.20;;;13.00;9.90;;;;;;5000295;28;20535;-79
2024/03/10 10:08:14;;;;;;;6.37;6.07;;;13.10;11.40;;;;;;4999771;28;20477;-80
2024/03/10 10:10:59;;;;;;;6.30;6.00;;;13.10;9.30;;;;;;5001017;28;20421;-80
2024/03/10 10:13:30;;;;;;;5.60;5.40;;;13.10;9.00;;;;;;5000232;28;20509;-80
2024/03/10 10:16:16;;;;;;;6.40;5.90;;;13.20;8.80;;;;;;5003891;28;20421;-81
2024/03/10 10:18:47;;;;;;;5.60;5.30;;;13.20;8.90;;;;;;5009667;28;20437;-81
2024/03/10 10:21:13;;;;;;;5.37;5.17;;;13.10;8.70;;;;;;5008462;28;20944;-80
2024/03/10 10:23:39;;;;;;;5.57;5.27;;;13.10;9.00;;;;;;5002175;28;20457;-80
2024/03/10 10:26:09;;;;;;;5.90;5.70;;;13.10;9.30;;;;;;4992972;28;20425;-79
2024/03/10 10:28:41;;;;;;;6.50;6.10;;;13.10;9.50;;;;;;5002519;28;20215;-78
2024/03/10 10:31:18;;;;;;;6.77;6.33;;;13.00;9.80;;;;;;5005274;28;20822;-80
2024/03/10 10:33:47;;;;;;;5.50;5.27;;;13.00;9.90;;;;;;5001329;28;20448;-80
2024/03/10 10:36:25;;;;;;;7.23;6.73;;;13.10;9.80;;;;;;4993884;28;20429;-81
2024/03/10 10:38:51;;;;;;;6.60;6.30;;;13.10;9.50;;;;;;4995846;28;20885;-80
2024/03/10 10:41:26;;;;;;;5.87;5.57;;;13.20;9.30;;;;;;5002580;28;20472;-79
2024/03/10 10:43:53;;;;;;;5.60;5.30;;;13.20;9.30;;;;;;4998330;28;20424;-80
2024/03/10 10:46:23;;;;;;;6.27;5.97;;;13.20;9.80;;;;;;5007400;28;20460;-80
2024/03/10 10:48:49;;;;;;;6.00;5.63;;;13.20;9.80;;;;;;5014652;28;20789;-80
2024/03/10 10:51:17;;;;;;;6.00;5.70;;;13.30;9.60;;;;;;5006192;28;20528;-79
2024/03/10 10:53:45;;;;;;;5.37;5.10;;;13.30;9.30;;;;;;4985655;28;20425;-80
2024/03/10 10:56:14;;;;;;;6.20;5.90;;;13.40;9.20;;;;;;4993977;28;20425;-80
2024/03/10 10:59:09;;;;;;;6.03;5.73;;;13.40;9.00;;;;;;5005845;28;20445;-80
2024/03/10 11:02:37;;;;;;;6.27;5.90;;;13.40;8.70;;;;;;5099206;23;20497;-84
2024/03/10 11:05:07;;;;;;;5.70;5.30;;;13.40;9.20;;;;;;4982770;28;20430;-84
2024/03/10 11:07:45;;;;;;;5.77;5.47;;;13.40;9.50;;;;;;5004743;28;20492;-84
2024/03/10 11:11:14;;;;;;;7.63;7.13;;;13.50;9.10;;;;;;4992148;28;20435;-85
2024/03/10 11:17:33;;;;;;;9.33;8.73;;;13.60;9.60;;;;;;4901067;29;20427;-84
2024/03/10 11:21:24;;;;;;;;;;;;;;;;;;;;;
2024/03/10 11:38:16;;;;;;;5.37;5.17;;;13.70;8.90;;;;;;4902694;29;20431;-83
2024/03/10 11:52:12;;;;;;;;;;;;;;;;;;;;;
2024/03/10 11:55:24;;;;;;;7.03;6.63;;;13.70;10.50;;;;;;4733365;30;20452;-83
2024/03/10 12:01:47;;;;;;;7.13;6.73;;;13.80;10.60;;;;;;4800628;29;20550;-84
2024/03/10 12:05:16;;;;;;;6.00;5.70;;;13.80;10.40;;;;;;4842226;29;20432;-84
2024/03/10 12:08:34;;;;;;;;;;;;;;;;;;;;;
2024/03/10 12:17:54;;;;;;;7.03;6.73;;;14.00;10.80;;;;;;4808226;29;20491;-83
2024/03/10 12:20:45;;;;;;;7.10;6.70;;;14.10;10.40;;;;;;4854547;29;20441;-84
2024/03/10 12:23:51;;;;;;;11.87;11.07;;;14.10;11.00;;;;;;4863343;29;20419;-85
2024/03/10 12:26:47;;;;;;;6.67;6.30;;;14.20;10.40;;;;;;4891238;29;20524;-84
2024/03/10 12:32:38;;;;;;;7.33;6.83;;;14.20;9.10;;;;;;4973961;28;20518;-83
2024/03/10 12:35:35;;;;;;;8.00;7.40;;;14.20;9.70;;;;;;4928260;28;20433;-84
2024/03/10 12:38:10;;;;;;;6.47;6.07;;;14.20;9.70;;;;;;4964119;28;20494;-83
2024/03/10 12:40:39;;;;;;;8.20;7.60;;;14.20;10.80;;;;;;4962550;28;20443;-83
2024/03/10 12:43:16;;;;;;;6.33;6.03;;;14.10;10.80;;;;;;4985373;28;20422;-85
2024/03/10 12:46:22;;;;;;;9.63;8.83;;;14.10;13.40;;;;;;4959531;28;20442;-83
2024/03/10 12:49:18;;;;;;;6.17;5.83;;;14.10;10.40;;;;;;4956299;29;20498;-84
2024/03/10 12:55:35;;;;;;;8.43;7.77;;;14.10;10.50;;;;;;4950996;28;20499;-84
2024/03/10 12:58:04;;;;;;;7.30;6.70;;;14.10;9.50;;;;;;4963447;28;20422;-83
2024/03/10 13:00:42;;;;;;;6.50;6.10;;;14.10;10.10;;;;;;4969645;28;20423;-83
2024/03/10 13:09:52;;;;;;;6.90;6.60;;;14.10;11.40;;;;;;4960568;28;20442;-82
2024/03/10 13:12:18;;;;;;;6.50;6.07;;;14.10;11.10;;;;;;4976501;28;20455;-83
2024/03/10 13:14:49;;;;;;;6.87;6.47;;;14.00;12.20;;;;;;4974556;28;20202;-83
2024/03/10 13:17:49;;;;;;;7.50;7.00;;;14.00;10.90;;;;;;4966473;28;20191;-83
2024/03/10 13:20:20;;;;;;;6.53;6.23;;;14.00;10.30;;;;;;4991206;28;20442;-82
2024/03/10 13:22:58;;;;;;;7.10;6.70;;;13.90;10.20;;;;;;4983376;28;20862;-83
2024/03/10 13:25:36;;;;;;;7.77;7.17;;;13.90;10.60;;;;;;4962846;28;20425;-83
2024/03/10 13:46:45;;;;;;;11.47;10.67;;;13.50;13.00;;;;;;4972788;28;20492;-80
2024/03/10 13:53:13;;;;;;;15.13;14.13;;;13.40;13.10;;;;;;4975918;28;21001;-84
2024/03/10 13:56:14;;;;;;;8.50;7.90;;;13.30;13.20;;;;;;4974088;28;20809;-82
2024/03/10 13:58:58;;;;;;;9.10;8.47;;;13.30;13.20;;;;;;4955545;28;20963;-85
2024/03/10 14:01:26;;;;;;;8.60;8.00;;;13.30;13.30;;;;;;4976633;28;20466;-85
2024/03/10 14:04:43;;;;;;;7.70;7.30;;;13.20;13.90;;;;;;4978737;28;20537;-86
2024/03/10 14:14:49;;;;;;;9.30;8.80;;;13.30;13.90;;;;;;4927605;29;20511;-85
2024/03/10 14:18:05;;;;;;;7.03;6.63;;;13.20;13.70;;;;;;4928179;29;20448;-84
2024/03/10 14:21:27;;;;;;;10.23;9.60;;;13.20;13.90;;;;;;4904197;29;20433;-84
2024/03/10 14:24:45;;;;;;;11.80;11.00;;;13.30;13.80;;;;;;4901482;29;20977;-83
2024/03/10 14:27:49;;;;;;;7.90;7.50;;;13.30;13.10;;;;;;4934603;29;20839;-84
2024/03/10 14:31:27;;;;;;;;;;;;;;;;;;;;;
2024/03/10 14:34:53;;;;;;;10.07;9.27;;;13.10;13.30;;;;;;4862286;29;20449;-84
2024/03/10 14:37:19;;;;;;;8.40;7.90;;;13.20;13.10;;;;;;4880920;29;20491;-85
2024/03/10 14:43:08;;;;;;;9.03;8.43;;;13.20;13.10;;;;;;4936266;29;20192;-83
2024/03/10 14:49:48;;;;;;;9.17;8.67;;;13.30;12.90;;;;;;4938417;29;20577;-87
2024/03/10 14:55:58;;;;;;;8.97;8.47;;;13.10;14.00;;;;;;4929958;28;20450;-86
2024/03/10 14:58:56;;;;;;;10.30;9.47;;;13.00;14.00;;;;;;4916499;28;20425;-85
2024/03/10 15:01:35;;;;;;;10.10;9.47;;;12.90;14.00;;;;;;4973737;28;20457;-85
2024/03/10 15:04:21;;;;;;;10.57;9.90;;;12.90;14.10;;;;;;4973302;28;20427;-85
2024/03/10 15:17:53;;;;;;;9.60;8.90;;;12.80;14.90;;;;;;4967167;28;20924;-86
2024/03/10 15:34:33;;;;;;;11.80;11.00;;;12.60;15.00;;;;;;4953441;29;20423;-82
2024/03/10 15:40:39;;;;;;;11.83;11.03;;;12.50;15.10;;;;;;4951908;29;20419;-85
2024/03/10 15:43:15;;;;;;;12.73;11.73;;;12.50;15.20;;;;;;4954187;28;20421;-80
2024/03/10 15:45:46;;;;;;;12.00;11.27;;;12.50;15.30;;;;;;4988909;28;20441;-80
2024/03/10 15:48:15;;;;;;;12.70;11.90;;;12.40;15.90;;;;;;4989743;28;20458;-81
2024/03/10 15:51:37;;;;;;;12.37;11.50;;;12.40;15.90;;;;;;4987037;28;20434;-82
2024/03/10 16:16:44;;;;;;;12.50;11.70;;;12.50;15.30;;;;;;4987466;28;20450;-83
2024/03/10 16:30:51;;;;;;;13.70;12.80;;;12.30;16.50;;;;;;4929308;29;20419;-82
2024/03/10 17:03:41;;;;;;;14.90;13.60;;;12.70;16.70;;;;;;4996260;28;20473;-80
2024/03/10 17:06:08;;;;;;;14.57;13.63;;;12.70;16.80;;;;;;4988740;28;20657;-81
2024/03/10 17:08:36;;;;;;;15.17;14.13;;;12.70;16.70;;;;;;4981188;28;20234;-80
2024/03/10 17:11:04;;;;;;;15.97;14.83;;;12.70;16.80;;;;;;4976454;28;20444;-80
2024/03/10 17:13:32;;;;;;;15.90;14.90;;;12.70;16.80;;;;;;4975870;28;20466;-79
2024/03/10 17:15:59;;;;;;;14.20;13.23;;;12.70;17.00;;;;;;4976854;28;20434;-80
2024/03/10 17:18:25;;;;;;;15.07;14.07;;;12.60;17.00;;;;;;4976984;28;20466;-80
2024/03/10 17:20:54;;;;;;;16.20;15.07;;;12.60;17.50;;;;;;4978801;28;20806;-79
2024/03/10 17:23:21;;;;;;;16.70;15.50;;;12.50;17.50;;;;;;4975660;28;20536;-79
2024/03/10 17:25:49;;;;;;;15.80;14.70;;;12.50;17.60;;;;;;4976481;28;20429;-81
2024/03/10 17:28:16;;;;;;;16.23;15.13;;;12.50;17.90;;;;;;4977253;28;20484;-80
2024/03/10 17:30:44;;;;;;;14.30;13.30;;;12.40;18.70;;;;;;4983977;28;20571;-79
2024/03/10 17:33:11;;;;;;;16.10;14.90;;;12.30;18.90;;;;;;4964444;28;20779;-79
2024/03/10 17:35:39;;;;;;;16.50;15.20;;;12.30;18.80;;;;;;4997205;28;20429;-79
2024/03/10 17:38:06;;;;;;;16.93;15.73;;;12.20;19.10;;;;;;4996371;28;20528;-79
2024/03/10 17:40:31;;;;;;;15.90;14.10;;;12.20;19.50;;;;;;4982692;28;20903;-80
2024/03/10 17:42:57;;;;;;;14.97;13.87;;;12.20;19.10;;;;;;4976812;28;20485;-78
2024/03/10 17:45:24;;;;;;;16.77;15.67;;;12.20;19.20;;;;;;4975872;28;20673;-79